createdAt,value
2023-02-28T00:01:59.223Z,3.55
2023-02-28T00:07:04.834Z,4.18
2023-02-28T00:12:11.391Z,7.30
2023-02-28T00:17:13.950Z,6.20
2023-02-28T00:22:18.376Z,3.45
2023-02-28T00:27:21.120Z,4.43
2023-02-28T00:32:23.798Z,4.63
2023-02-28T00:37:26.657Z,4.78
2023-02-28T00:42:29.383Z,4.82
2023-02-28T00:47:32.455Z,4.97
2023-02-28T00:52:35.178Z,4.72
2023-02-28T00:57:37.893Z,3.88
2023-02-28T01:02:40.505Z,4.70
2023-02-28T01:07:44.317Z,4.75
2023-02-28T01:12:47.031Z,5.15
2023-02-28T01:17:52.080Z,6.03
2023-02-28T01:22:54.863Z,5.95
2023-02-28T01:27:57.716Z,4.85
2023-02-28T01:33:02.585Z,4.75
2023-02-28T01:38:20.887Z,4.35
2023-02-28T01:43:26.327Z,5.78
2023-02-28T01:48:33.712Z,6.13
2023-02-28T01:53:38.812Z,7.85
2023-02-28T01:58:41.587Z,6.03
2023-02-28T02:03:44.383Z,6.85
2023-02-28T02:08:48.293Z,8.40
2023-02-28T02:14:16.934Z,7.68
2023-02-28T02:19:19.709Z,7.43
2023-02-28T02:24:40.775Z,6.40
2023-02-28T02:29:53.260Z,8.32
2023-02-28T02:35:15.294Z,8.10
2023-02-28T02:40:21.149Z,7.45
2023-02-28T02:45:37.675Z,6.90
2023-02-28T02:50:45.694Z,5.78
2023-02-28T02:55:54.300Z,6.10
2023-02-28T03:01:01.303Z,6.65
2023-02-28T03:06:04.713Z,7.82
2023-02-28T03:11:15.270Z,6.28
2023-02-28T03:16:18.867Z,8.45
2023-02-28T03:21:40.568Z,7.90
2023-02-28T03:26:45.370Z,6.20
2023-02-28T03:31:53.937Z,7.03
2023-02-28T03:36:58.854Z,8.07
2023-02-28T03:42:21.781Z,6.88
2023-02-28T03:47:26.622Z,8.70
2023-02-28T03:52:32.187Z,7.22
2023-02-28T03:57:34.667Z,7.35
2023-02-28T04:02:37.279Z,11.35
2023-02-28T04:07:39.739Z,9.02
2023-02-28T04:12:42.407Z,8.55
2023-02-28T04:17:45.185Z,16.50
2023-02-28T04:22:47.855Z,16.38
2023-02-28T04:27:50.795Z,11.48
2023-02-28T04:32:53.482Z,21.10
2023-02-28T04:37:56.292Z,12.65
2023-02-28T04:42:59.023Z,19.38
2023-02-28T04:48:01.728Z,16.55
2023-02-28T04:53:04.380Z,10.32
2023-02-28T04:58:08.638Z,8.52
2023-02-28T05:03:12.425Z,9.18
2023-02-28T05:08:15.195Z,10.60
2023-02-28T05:13:17.917Z,23.45
2023-02-28T05:18:20.767Z,14.27
2023-02-28T05:23:23.960Z,25.00
2023-02-28T05:28:26.698Z,13.52
2023-02-28T05:33:29.475Z,12.43
2023-02-28T05:38:32.194Z,11.88
2023-02-28T05:43:35.391Z,15.82
2023-02-28T05:48:39.337Z,10.63
2023-02-28T05:53:42.162Z,10.73
2023-02-28T05:58:44.816Z,16.33
2023-02-28T06:03:47.687Z,12.18
2023-02-28T06:08:50.592Z,10.07
2023-02-28T06:13:54.426Z,32.17
2023-02-28T06:18:59.238Z,18.27
2023-02-28T06:24:02.218Z,20.45
2023-02-28T06:29:05.023Z,38.83
2023-02-28T06:34:07.716Z,22.13
2023-02-28T06:39:11.136Z,17.27
2023-02-28T06:44:15.308Z,16.67
2023-02-28T06:49:18.062Z,18.98
2023-02-28T06:54:20.809Z,13.80
2023-02-28T06:59:23.545Z,13.15
2023-02-28T07:04:26.121Z,13.32
2023-02-28T07:09:31.164Z,11.98
2023-02-28T07:14:33.928Z,12.98
2023-02-28T07:19:36.688Z,24.80
2023-02-28T07:24:39.555Z,15.52
2023-02-28T07:29:42.185Z,10.80
2023-02-28T07:34:44.752Z,19.33
2023-02-28T07:39:47.334Z,17.63
2023-02-28T07:44:50.454Z,20.52
2023-02-28T07:49:53.147Z,19.55
2023-02-28T07:54:55.874Z,19.75
2023-02-28T07:59:58.569Z,28.35
2023-02-28T08:05:01.305Z,10.20
2023-02-28T08:10:04.083Z,10.77
2023-02-28T08:15:07.148Z,7.75
2023-02-28T08:20:11.452Z,8.88
2023-02-28T08:25:14.679Z,14.98
2023-02-28T08:30:17.804Z,10.45
2023-02-28T08:35:20.528Z,9.40
2023-02-28T08:40:23.151Z,7.13
2023-02-28T08:45:25.915Z,5.57
2023-02-28T08:50:28.879Z,10.30
2023-02-28T08:55:31.503Z,7.75
2023-02-28T09:00:34.033Z,6.70
2023-02-28T09:05:36.717Z,5.60
2023-02-28T09:10:39.415Z,6.25
2023-02-28T09:15:42.158Z,4.70
2023-02-28T09:20:45.029Z,9.48
2023-02-28T09:25:54.860Z,6.18
2023-02-28T09:31:00.144Z,5.05
2023-02-28T09:36:04.916Z,4.90
2023-02-28T09:41:26.845Z,6.28
2023-02-28T09:46:33.451Z,4.88
2023-02-28T09:51:41.188Z,9.02
2023-02-28T09:56:43.751Z,8.43
2023-02-28T10:01:47.184Z,6.80
2023-02-28T10:06:53.386Z,3.78
2023-02-28T10:11:59.002Z,5.22
2023-02-28T10:17:16.097Z,3.28
2023-02-28T10:22:42.050Z,3.22
2023-02-28T10:27:45.462Z,3.58
2023-02-28T10:32:50.638Z,2.85
2023-02-28T10:37:57.703Z,4.72
2023-02-28T10:43:02.165Z,13.50
2023-02-28T10:48:06.193Z,4.85
2023-02-28T10:53:16.039Z,4.32
2023-02-28T10:58:23.702Z,4.72
2023-02-28T11:03:34.758Z,4.22
2023-02-28T11:08:45.350Z,5.65
2023-02-28T11:13:49.128Z,4.28
2023-02-28T11:18:55.583Z,3.95
2023-02-28T11:24:06.777Z,5.15
2023-02-28T11:29:28.846Z,3.60
2023-02-28T11:34:32.211Z,7.45
2023-02-28T11:39:34.862Z,4.45
2023-02-28T11:44:44.658Z,5.32
2023-02-28T11:50:03.459Z,9.82
2023-02-28T11:55:18.556Z,4.78
2023-02-28T12:00:27.425Z,5.18
2023-02-28T12:05:56.225Z,8.27
2023-02-28T12:11:14.792Z,4.50
2023-02-28T12:16:43.272Z,4.72
2023-02-28T12:21:54.734Z,3.60
2023-02-28T12:26:58.964Z,3.05
2023-02-28T12:32:20.069Z,3.85
2023-02-28T12:37:29.030Z,4.00
2023-02-28T12:42:32.945Z,3.35
2023-02-28T12:47:35.665Z,3.00
2023-02-28T12:52:47.208Z,4.38
2023-02-28T12:57:55.428Z,3.83
2023-02-28T13:02:59.487Z,3.58
2023-02-28T13:08:08.999Z,4.43
2023-02-28T13:13:16.404Z,3.70
2023-02-28T13:18:29.032Z,4.20
2023-02-28T13:23:40.112Z,3.60
2023-02-28T13:29:02.441Z,4.82
2023-02-28T13:34:14.439Z,4.75
2023-02-28T13:39:36.228Z,4.05
2023-02-28T13:45:14.376Z,5.57
2023-02-28T13:50:30.053Z,3.30
2023-02-28T13:55:38.771Z,3.83
2023-02-28T14:00:53.157Z,4.50
2023-02-28T14:06:15.008Z,4.70
2023-02-28T14:11:28.549Z,6.33
2023-02-28T14:16:42.075Z,7.00
2023-02-28T14:21:51.290Z,3.75
2023-02-28T14:27:12.716Z,6.30
2023-02-28T14:32:23.833Z,3.83
2023-02-28T14:37:29.750Z,4.03
2023-02-28T14:42:36.631Z,5.22
2023-02-28T14:47:39.134Z,8.05
2023-02-28T14:52:44.229Z,3.65
2023-02-28T14:57:55.436Z,5.10
2023-02-28T15:02:58.932Z,2.45
2023-02-28T15:08:03.110Z,5.10
2023-02-28T15:13:12.553Z,4.75
2023-02-28T15:18:35.854Z,4.93
2023-02-28T15:23:39.197Z,4.10
2023-02-28T15:28:42.115Z,3.95
2023-02-28T15:33:53.320Z,5.25
2023-02-28T15:39:01.534Z,3.70
2023-02-28T15:44:28.235Z,4.47
2023-02-28T15:49:42.718Z,26.80
2023-02-28T15:54:48.079Z,7.40
2023-02-28T15:59:52.893Z,5.18
2023-02-28T16:04:56.595Z,4.95
2023-02-28T16:09:59.163Z,6.95
2023-02-28T16:15:04.184Z,4.70
2023-02-28T16:20:14.637Z,5.15
2023-02-28T16:25:19.075Z,7.05
2023-02-28T16:30:26.208Z,8.27
2023-02-28T16:35:28.975Z,4.93
2023-02-28T16:40:34.807Z,7.40
2023-02-28T16:45:37.577Z,5.10
2023-02-28T16:50:40.380Z,5.47
2023-02-28T16:55:43.254Z,7.20
2023-02-28T17:00:46.117Z,10.15
2023-02-28T17:05:51.266Z,9.63
2023-02-28T17:10:54.027Z,7.53
2023-02-28T17:15:57.121Z,6.25
2023-02-28T17:21:00.015Z,6.65
2023-02-28T17:26:02.735Z,8.52
2023-02-28T17:31:05.484Z,8.20
2023-02-28T17:36:11.467Z,8.00
2023-02-28T17:41:14.248Z,10.25
2023-02-28T17:46:21.850Z,8.98
2023-02-28T17:51:25.663Z,7.50
2023-02-28T17:56:29.037Z,7.57
2023-02-28T18:01:32.027Z,7.82
2023-02-28T18:06:48.361Z,8.57
2023-02-28T18:11:51.870Z,7.20
2023-02-28T18:16:56.373Z,9.07
2023-02-28T18:21:59.174Z,10.88
2023-02-28T18:27:02.123Z,10.85
2023-02-28T18:32:06.595Z,10.07
2023-02-28T18:37:11.828Z,10.30
2023-02-28T18:42:14.334Z,8.50
2023-02-28T18:47:16.735Z,9.77
2023-02-28T18:52:19.249Z,7.47
2023-02-28T18:57:21.923Z,6.15
2023-02-28T19:02:24.384Z,7.75
2023-02-28T19:07:26.971Z,7.72
2023-02-28T19:12:29.470Z,11.35
2023-02-28T19:17:32.419Z,7.68
2023-02-28T19:22:35.107Z,9.52
2023-02-28T19:27:37.611Z,6.78
2023-02-28T19:32:40.160Z,11.25
2023-02-28T19:37:43.004Z,8.85
2023-02-28T19:42:45.920Z,9.23
2023-02-28T19:47:48.822Z,9.02
2023-02-28T19:52:51.529Z,7.75
2023-02-28T19:57:54.353Z,7.32
2023-02-28T20:02:57.069Z,8.27
2023-02-28T20:08:00.050Z,8.18
2023-02-28T20:13:05.702Z,7.72
2023-02-28T20:18:08.594Z,17.23
2023-02-28T20:23:11.469Z,8.55
2023-02-28T20:28:14.771Z,9.18
2023-02-28T20:33:18.225Z,8.68
2023-02-28T20:38:20.781Z,7.15
2023-02-28T20:43:24.089Z,9.80
2023-02-28T20:48:26.828Z,8.27
2023-02-28T20:53:29.630Z,7.18
2023-02-28T20:58:33.914Z,9.98
2023-02-28T21:03:36.579Z,10.63
2023-02-28T21:08:39.667Z,10.02
2023-02-28T21:13:45.626Z,9.88
2023-02-28T21:18:48.846Z,12.02
2023-02-28T21:23:52.144Z,15.60
2023-02-28T21:28:58.910Z,12.13
2023-02-28T21:34:02.655Z,13.68
2023-02-28T21:39:30.354Z,15.18
2023-02-28T21:44:34.869Z,14.50
2023-02-28T21:49:38.432Z,15.35
2023-02-28T21:54:41.147Z,17.33
2023-02-28T21:59:43.858Z,16.08
2023-02-28T22:04:46.653Z,13.93
2023-02-28T22:09:49.476Z,14.38
2023-02-28T22:14:52.128Z,10.52
2023-02-28T22:19:54.786Z,10.27
2023-02-28T22:24:57.520Z,16.63
2023-02-28T22:30:00.238Z,9.90
2023-02-28T22:35:02.973Z,13.55
2023-02-28T22:40:05.956Z,15.40
2023-02-28T22:45:09.367Z,13.57
2023-02-28T22:50:12.505Z,11.95
2023-02-28T22:55:15.274Z,12.00
2023-02-28T23:00:18.347Z,12.73
2023-02-28T23:05:21.249Z,13.00
2023-02-28T23:10:23.711Z,12.32
2023-02-28T23:15:26.437Z,10.63
2023-02-28T23:20:29.897Z,10.52
2023-02-28T23:25:32.590Z,10.35
2023-02-28T23:30:36.792Z,8.63
2023-02-28T23:35:40.372Z,11.30
2023-02-28T23:40:43.172Z,9.68
2023-02-28T23:45:54.452Z,9.80
2023-02-28T23:51:01.040Z,9.93
2023-02-28T23:56:03.818Z,10.52
